METAR TAF

[Source: ADDS]
METAR
LFCR 171900Z AUTO 28010KT 9999 FEW011 BKN019 BKN029 06/05 Q1029 TEMPO 4000 SHRA BKN006 BKN015TCU =
LFCR 171700Z 1718/1818 29010KT 9999 BKN023 PROB40 TEMPO 1718/1722 4000 SHRA BKN006 BKN015TCU BECMG 1722/1724 BKN012 TEMPO 1800/1806 BKN006 BECMG 1808/1810 BKN025 LFBA 171900Z AUTO 27007KT CAVOK 09/07 Q1031 TEMPO 3000 SHRA BKN014TCU =
LFBA 171700Z 1718/1803 22008KT 9999 SCT030 BKN060 PROB30 TEMPO 1718/1724 28012KT 3000 SHRA BKN014TCU LFSL 171900Z AUTO 24003KT CAVOK 07/06 Q1029 TEMPO 3000 -SHRA BKN008 BKN015TCU =
LFSL 171700Z 1718/1803 26006KT 9999 SCT012 BKN030 TEMPO 1718/1721 3000 -SHRA BKN008 BKN015TCU LFLW 171900Z AUTO 25005KT 210V290 9999 ////// 06/05 Q1028 =
LFLW 171400Z 1715/1724 27006KT 9999 BKN013 TEMPO 1715/1721 3000 -SHRA BKN008TCU
TAF
LFCR 171700Z 1718/1818 29010KT 9999 BKN023 PROB40 TEMPO 1718/1722 4000 SHRA BKN006 BKN015TCU BECMG 1722/1724 BKN012 TEMPO 1800/1806 BKN006 BECMG 1808/1810 BKN025 =
LFBA 171700Z 1718/1803 22008KT 9999 SCT030 BKN060 PROB30 TEMPO 1718/1724 28012KT 3000 SHRA BKN014TCU =
LFSL 171700Z 1718/1803 26006KT 9999 SCT012 BKN030 TEMPO 1718/1721 3000 -SHRA BKN008 BKN015TCU =
LFLW 171400Z 1715/1724 27006KT 9999 BKN013 TEMPO 1715/1721 3000 -SHRA BKN008TCU =
SR / SS: 06:50 / 17:25 UTC (LFCC 2020-02-17)